sensor_id;sensor_type;location;lat;lon;timestamp;pressure;altitude;pressure_sealevel;temperature;humidity
85794;BME280;76242;41.478;22.082;2024-03-02T01:18:16;99111.50;;;9.80;90.26
85794;BME280;76242;41.478;22.082;2024-03-02T01:20:42;99109.44;;;9.77;90.10
85794;BME280;76242;41.478;22.082;2024-03-02T01:47:29;99094.13;;;9.68;89.89
85794;BME280;76242;41.478;22.082;2024-03-02T01:49:55;99100.50;;;9.59;90.47
85794;BME280;76242;41.478;22.082;2024-03-02T01:52:21;99095.84;;;9.51;90.66
85794;BME280;76242;41.478;22.082;2024-03-02T01:54:47;99093.84;;;9.60;90.55
85794;BME280;76242;41.478;22.082;2024-03-02T01:57:12;99098.22;;;9.61;90.31
85794;BME280;76242;41.478;22.082;2024-03-02T01:59:38;99107.84;;;9.55;90.40
85794;BME280;76242;41.478;22.082;2024-03-02T02:02:07;99096.88;;;9.47;90.91
85794;BME280;76242;41.478;22.082;2024-03-02T02:04:33;99106.41;;;9.49;90.90
85794;BME280;76242;41.478;22.082;2024-03-02T02:06:59;99103.81;;;9.53;90.15
85794;BME280;76242;41.478;22.082;2024-03-02T02:16:14;99120.41;;;9.65;90.14
85794;BME280;76242;41.478;22.082;2024-03-02T02:53:39;99132.09;;;9.62;90.55
85794;BME280;76242;41.478;22.082;2024-03-02T02:56:07;99131.31;;;9.61;91.06
85794;BME280;76242;41.478;22.082;2024-03-02T02:58:37;99125.59;;;9.67;90.51
85794;BME280;76242;41.478;22.082;2024-03-02T03:01:05;99114.06;;;9.65;90.60
85794;BME280;76242;41.478;22.082;2024-03-02T03:07:31;99118.19;;;9.58;91.08
85794;BME280;76242;41.478;22.082;2024-03-02T03:09:57;99114.50;;;9.54;91.05
85794;BME280;76242;41.478;22.082;2024-03-02T03:12:22;99116.28;;;9.50;91.79
85794;BME280;76242;41.478;22.082;2024-03-02T03:14:48;99124.09;;;9.48;91.82
85794;BME280;76242;41.478;22.082;2024-03-02T03:35:45;99127.22;;;9.68;90.88
85794;BME280;76242;41.478;22.082;2024-03-02T03:48:48;99120.81;;;9.34;92.29
85794;BME280;76242;41.478;22.082;2024-03-02T03:51:35;99122.53;;;9.39;91.65
85794;BME280;76242;41.478;22.082;2024-03-02T04:05:15;99121.31;;;9.27;92.47
85794;BME280;76242;41.478;22.082;2024-03-02T04:07:41;99116.81;;;9.23;92.72
85794;BME280;76242;41.478;22.082;2024-03-02T04:10:09;99130.78;;;9.18;92.79
85794;BME280;76242;41.478;22.082;2024-03-02T04:12:38;99134.50;;;9.22;92.78
85794;BME280;76242;41.478;22.082;2024-03-02T04:15:05;99132.69;;;9.26;92.61
85794;BME280;76242;41.478;22.082;2024-03-02T06:52:15;99224.06;;;11.19;82.76
85794;BME280;76242;41.478;22.082;2024-03-02T06:54:41;99225.13;;;11.15;83.45
85794;BME280;76242;41.478;22.082;2024-03-02T06:57:07;99218.78;;;11.63;81.70
85794;BME280;76242;41.478;22.082;2024-03-02T06:59:33;99231.31;;;11.97;81.25
85794;BME280;76242;41.478;22.082;2024-03-02T07:02:21;99227.75;;;11.97;79.86
85794;BME280;76242;41.478;22.082;2024-03-02T07:31:13;99235.78;;;14.51;70.97
85794;BME280;76242;41.478;22.082;2024-03-02T07:33:39;99245.28;;;14.50;70.78
85794;BME280;76242;41.478;22.082;2024-03-02T07:36:23;99250.53;;;14.36;72.31
85794;BME280;76242;41.478;22.082;2024-03-02T08:19:26;99275.91;;;16.10;66.03
85794;BME280;76242;41.478;22.082;2024-03-02T08:25:35;99276.84;;;15.23;67.27
85794;BME280;76242;41.478;22.082;2024-03-02T08:28:02;99270.78;;;16.12;65.93
85794;BME280;76242;41.478;22.082;2024-03-02T08:30:29;99275.59;;;16.45;62.21
85794;BME280;76242;41.478;22.082;2024-03-02T13:51:21;99036.94;;;26.81;23.82
85794;BME280;76242;41.478;22.082;2024-03-02T16:48:03;99119.25;;;14.85;60.18
85794;BME280;76242;41.478;22.082;2024-03-02T16:50:29;99121.91;;;15.00;62.44
85794;BME280;76242;41.478;22.082;2024-03-02T17:13:36;99147.75;;;14.78;63.43
85794;BME280;76242;41.478;22.082;2024-03-02T17:16:02;99158.44;;;14.76;63.63
85794;BME280;76242;41.478;22.082;2024-03-02T17:18:32;99163.53;;;14.74;63.74
85794;BME280;76242;41.478;22.082;2024-03-02T17:21:01;99161.38;;;14.64;63.10
85794;BME280;76242;41.478;22.082;2024-03-02T17:23:30;99169.16;;;14.55;64.61
85794;BME280;76242;41.478;22.082;2024-03-02T17:26:08;99163.81;;;14.46;65.51
85794;BME280;76242;41.478;22.082;2024-03-02T17:52:36;99180.41;;;13.33;68.33
85794;BME280;76242;41.478;22.082;2024-03-02T17:55:07;99177.63;;;13.17;68.55
85794;BME280;76242;41.478;22.082;2024-03-02T17:57:33;99185.41;;;13.12;69.00
85794;BME280;76242;41.478;22.082;2024-03-02T18:00:02;99191.94;;;13.04;70.07
85794;BME280;76242;41.478;22.082;2024-03-02T18:02:28;99190.16;;;12.96;70.04
85794;BME280;76242;41.478;22.082;2024-03-02T18:04:55;99183.97;;;12.86;70.15
85794;BME280;76242;41.478;22.082;2024-03-02T18:07:29;99187.78;;;12.66;70.54
85794;BME280;76242;41.478;22.082;2024-03-02T18:09:55;99183.06;;;12.67;70.93
85794;BME280;76242;41.478;22.082;2024-03-02T18:26:28;99193.06;;;12.71;71.28
85794;BME280;76242;41.478;22.082;2024-03-02T18:29:01;99201.72;;;12.70;71.63
85794;BME280;76242;41.478;22.082;2024-03-02T18:31:31;99207.25;;;12.54;71.20
85794;BME280;76242;41.478;22.082;2024-03-02T18:46:53;99226.06;;;12.48;70.67
85794;BME280;76242;41.478;22.082;2024-03-02T18:49:18;99227.72;;;12.37;71.66
85794;BME280;76242;41.478;22.082;2024-03-02T18:51:44;99222.88;;;12.46;71.71
85794;BME280;76242;41.478;22.082;2024-03-02T18:54:10;99237.97;;;12.49;71.89
85794;BME280;76242;41.478;22.082;2024-03-02T18:56:37;99234.69;;;12.59;72.25
85794;BME280;76242;41.478;22.082;2024-03-02T18:59:02;99237.34;;;12.55;71.48
85794;BME280;76242;41.478;22.082;2024-03-02T19:01:28;99234.69;;;12.59;71.06
85794;BME280;76242;41.478;22.082;2024-03-02T19:04:11;99242.44;;;12.53;71.75
85794;BME280;76242;41.478;22.082;2024-03-02T19:22:34;99271.50;;;12.31;72.68
85794;BME280;76242;41.478;22.082;2024-03-02T19:25:05;99269.56;;;12.20;73.98
85794;BME280;76242;41.478;22.082;2024-03-02T19:27:34;99275.31;;;12.15;73.71
85794;BME280;76242;41.478;22.082;2024-03-02T19:35:10;99278.81;;;11.87;72.89
85794;BME280;76242;41.478;22.082;2024-03-02T19:37:39;99286.22;;;11.83;73.41
85794;BME280;76242;41.478;22.082;2024-03-02T19:40:06;99285.16;;;11.75;72.47
85794;BME280;76242;41.478;22.082;2024-03-02T19:42:32;99285.75;;;11.69;72.13
85794;BME280;76242;41.478;22.082;2024-03-02T19:45:00;99289.53;;;11.64;72.43
85794;BME280;76242;41.478;22.082;2024-03-02T19:47:25;99276.50;;;11.52;72.27
85794;BME280;76242;41.478;22.082;2024-03-02T19:49:51;99289.50;;;11.40;73.04
85794;BME280;76242;41.478;22.082;2024-03-02T19:52:17;99291.94;;;11.29;72.85
85794;BME280;76242;41.478;22.082;2024-03-02T19:54:43;99288.69;;;11.15;72.94
85794;BME280;76242;41.478;22.082;2024-03-02T20:04:54;99303.22;;;10.91;73.44
85794;BME280;76242;41.478;22.082;2024-03-02T20:07:21;99298.53;;;10.70;73.74
85794;BME280;76242;41.478;22.082;2024-03-02T20:09:47;99299.06;;;10.52;74.43
85794;BME280;76242;41.478;22.082;2024-03-02T20:12:13;99307.34;;;10.52;75.41
85794;BME280;76242;41.478;22.082;2024-03-02T20:14:40;99317.63;;;10.42;74.84
85794;BME280;76242;41.478;22.082;2024-03-02T20:17:14;99312.00;;;10.39;76.03
85794;BME280;76242;41.478;22.082;2024-03-02T20:45:38;99337.69;;;9.72;77.92
85794;BME280;76242;41.478;22.082;2024-03-02T20:48:08;99335.31;;;9.61;78.90
85794;BME280;76242;41.478;22.082;2024-03-02T20:50:34;99345.19;;;9.63;78.73
85794;BME280;76242;41.478;22.082;2024-03-02T20:53:18;99347.84;;;9.50;79.12
85794;BME280;76242;41.478;22.082;2024-03-02T21:01:50;99351.13;;;9.35;79.92
85794;BME280;76242;41.478;22.082;2024-03-02T21:04:31;99354.88;;;9.30;79.28
85794;BME280;76242;41.478;22.082;2024-03-02T21:10:15;99363.53;;;9.12;80.53
85794;BME280;76242;41.478;22.082;2024-03-02T21:16:20;99357.00;;;9.25;80.05
85794;BME280;76242;41.478;22.082;2024-03-02T21:18:45;99359.94;;;9.20;79.51
85794;BME280;76242;41.478;22.082;2024-03-02T21:21:11;99352.34;;;8.99;80.18
85794;BME280;76242;41.478;22.082;2024-03-02T21:23:40;99352.69;;;8.89;79.91
85794;BME280;76242;41.478;22.082;2024-03-02T21:26:06;99352.34;;;8.82;80.62
85794;BME280;76242;41.478;22.082;2024-03-02T21:31:07;99347.53;;;8.79;79.99
85794;BME280;76242;41.478;22.082;2024-03-02T21:33:32;99359.81;;;8.73;79.57
85794;BME280;76242;41.478;22.082;2024-03-02T21:35:58;99355.44;;;8.55;80.49
85794;BME280;76242;41.478;22.082;2024-03-02T21:38:23;99353.50;;;8.46;81.72
85794;BME280;76242;41.478;22.082;2024-03-02T21:40:50;99364.69;;;8.50;80.55
85794;BME280;76242;41.478;22.082;2024-03-02T21:43:16;99370.00;;;8.55;81.21
85794;BME280;76242;41.478;22.082;2024-03-02T21:53:35;99373.44;;;8.43;81.54
85794;BME280;76242;41.478;22.082;2024-03-02T22:20:19;99375.41;;;8.03;81.14
85794;BME280;76242;41.478;22.082;2024-03-02T22:22:47;99371.53;;;7.95;81.06
85794;BME280;76242;41.478;22.082;2024-03-02T22:28:12;99379.69;;;7.78;80.98
85794;BME280;76242;41.478;22.082;2024-03-02T22:30:38;99383.44;;;7.82;81.38
85794;BME280;76242;41.478;22.082;2024-03-02T22:33:04;99377.47;;;7.80;81.14
85794;BME280;76242;41.478;22.082;2024-03-02T22:35:58;99386.69;;;7.84;81.56
85794;BME280;76242;41.478;22.082;2024-03-02T22:38:44;99390.06;;;7.81;80.80
85794;BME280;76242;41.478;22.082;2024-03-02T22:41:10;99389.06;;;7.77;81.18
85794;BME280;76242;41.478;22.082;2024-03-02T22:43:35;99393.06;;;7.62;81.46
85794;BME280;76242;41.478;22.082;2024-03-02T22:46:06;99403.78;;;7.41;83.04
85794;BME280;76242;41.478;22.082;2024-03-02T22:48:36;99398.59;;;7.40;82.81
85794;BME280;76242;41.478;22.082;2024-03-02T23:01:46;99399.38;;;7.63;82.24
85794;BME280;76242;41.478;22.082;2024-03-02T23:04:12;99397.63;;;7.67;81.43
85794;BME280;76242;41.478;22.082;2024-03-02T23:06:38;99396.75;;;7.58;80.92
85794;BME280;76242;41.478;22.082;2024-03-02T23:09:03;99405.63;;;7.55;81.24
85794;BME280;76242;41.478;22.082;2024-03-02T23:11:30;99405.28;;;7.48;81.42
85794;BME280;76242;41.478;22.082;2024-03-02T23:13:56;99408.16;;;7.42;81.69
85794;BME280;76242;41.478;22.082;2024-03-02T23:16:21;99401.16;;;7.36;82.19
85794;BME280;76242;41.478;22.082;2024-03-02T23:18:47;99404.78;;;7.46;82.43
85794;BME280;76242;41.478;22.082;2024-03-02T23:21:14;99407.66;;;7.40;82.78
85794;BME280;76242;41.478;22.082;2024-03-02T23:23:39;99403.25;;;7.31;83.21
85794;BME280;76242;41.478;22.082;2024-03-02T23:26:05;99405.25;;;7.17;84.15
85794;BME280;76242;41.478;22.082;2024-03-02T23:28:31;99409.47;;;7.23;84.02
85794;BME280;76242;41.478;22.082;2024-03-02T23:30:57;99404.63;;;7.20;83.08
85794;BME280;76242;41.478;22.082;2024-03-02T23:33:23;99405.56;;;7.15;82.22
85794;BME280;76242;41.478;22.082;2024-03-02T23:35:50;99402.56;;;6.80;83.63
85794;BME280;76242;41.478;22.082;2024-03-02T23:38:17;99407.09;;;6.63;86.18
85794;BME280;76242;41.478;22.082;2024-03-02T23:43:26;99406.75;;;6.78;83.88
85794;BME280;76242;41.478;22.082;2024-03-02T23:45:51;99412.41;;;6.81;83.37
85794;BME280;76242;41.478;22.082;2024-03-02T23:48:17;99410.69;;;6.85;82.47
85794;BME280;76242;41.478;22.082;2024-03-02T23:50:43;99409.88;;;6.85;82.59
85794;BME280;76242;41.478;22.082;2024-03-02T23:53:09;99413.41;;;6.85;82.27
85794;BME280;76242;41.478;22.082;2024-03-02T23:55:35;99409.09;;;6.71;82.64
85794;BME280;76242;41.478;22.082;2024-03-02T23:58:00;99421.63;;;6.63;82.51
